Time;durP1;ratioP1;P1;durP2;ratioP2;P2;SDS_P1;SDS_P2;PMS_P1;PMS_P2;Temp;Humidity;BMP_temperature;BMP_pressure;BME280_temperature;BME280_humidity;BME280_pressure;Samples;Min_cycle;Max_cycle;Signal;HPM_P1;HPM_P2
2021/01/28 00:01:29;;;;;;;3.03;1.60;;;6.40;97.60;;;10.17;80.20;101030.22;5056742;27;97675;-73
2021/01/28 00:03:57;;;;;;;2.90;1.63;;;6.40;97.70;;;10.18;80.53;101031.00;5041237;27;97308;-73
2021/01/28 00:06:24;;;;;;;1.70;1.15;;;6.40;97.60;;;10.11;80.86;101026.03;5042784;27;96741;-73
2021/01/28 00:08:52;;;;;;;1.83;0.98;;;6.40;97.60;;;10.16;80.39;101028.63;5039345;27;98253;-73
2021/01/28 00:11:29;;;;;;;22.45;2.35;;;6.40;97.60;;;10.16;80.64;101033.16;5040145;27;97719;-73
2021/01/28 00:13:58;;;;;;;5.65;1.58;;;6.40;97.60;;;10.11;80.25;101023.34;5041551;27;97405;-73
2021/01/28 00:16:25;;;;;;;4.80;2.60;;;6.40;97.60;;;10.07;80.41;101019.69;5042604;27;97218;-73
2021/01/28 00:18:54;;;;;;;1.10;0.77;;;6.30;97.60;;;10.03;80.59;101015.97;5040266;27;98387;-73
2021/01/28 00:21:22;;;;;;;9.20;2.72;;;6.30;97.70;;;10.05;80.33;101021.03;5039806;27;97710;-73
2021/01/28 00:23:50;;;;;;;1.50;1.10;;;6.30;97.60;;;10.06;80.31;101019.94;5040494;27;97065;-73
2021/01/28 00:26:19;;;;;;;5.00;1.77;;;6.30;97.60;;;10.00;80.54;101023.75;5043456;27;97344;-73
2021/01/28 00:28:46;;;;;;;1.38;1.27;;;6.30;97.60;;;9.92;80.47;101029.78;5038987;27;98457;-73
2021/01/28 00:31:14;;;;;;;1.85;1.15;;;6.20;97.60;;;9.92;80.55;101021.75;5042528;27;96834;-73
2021/01/28 00:33:42;;;;;;;1.42;1.33;;;6.20;97.60;;;9.94;80.63;101024.94;5046728;27;97041;-73
2021/01/28 00:36:11;;;;;;;11.40;1.92;;;6.20;97.80;;;9.95;80.60;101026.53;5039231;27;96728;-73
2021/01/28 00:38:40;;;;;;;1.05;0.98;;;6.20;97.60;;;9.91;80.65;101020.16;5045933;27;97786;-73
2021/01/28 00:41:25;;;;;;;1.08;0.98;;;6.20;97.60;;;9.86;80.39;101020.22;5040874;27;97713;-72
2021/01/28 00:43:53;;;;;;;6.03;2.17;;;6.10;97.60;;;9.86;80.68;101020.22;5039401;27;97081;-74
2021/01/28 00:46:21;;;;;;;5.57;2.08;;;6.10;97.60;;;9.84;80.40;101011.69;5044259;27;97622;-74
2021/01/28 00:48:50;;;;;;;0.93;0.93;;;6.10;97.60;;;9.91;80.25;101009.47;5047682;27;97815;-74
2021/01/28 00:51:18;;;;;;;1.58;1.48;;;6.10;97.60;;;9.88;80.01;100999.31;5044210;27;97721;-74
2021/01/28 00:53:45;;;;;;;2.42;0.95;;;6.00;97.60;;;9.90;79.98;100995.25;5044445;27;96842;-73
2021/01/28 00:56:13;;;;;;;1.52;1.42;;;6.00;97.60;;;9.91;79.80;100996.84;5041582;27;96924;-74
2021/01/28 00:58:50;;;;;;;1.23;0.40;;;6.00;97.60;;;9.92;79.84;100997.66;5018998;27;97935;-74
2021/01/28 01:01:22;;;;;;;1.35;1.00;;;6.00;97.60;;;9.94;80.29;100987.47;5028388;27;97665;-74
2021/01/28 01:03:50;;;;;;;0.40;0.40;;;6.00;97.60;;;9.83;80.28;100981.47;5038244;27;96811;-74
2021/01/28 01:06:18;;;;;;;0.88;0.52;;;6.00;97.60;;;9.89;79.92;100974.13;5061080;27;97082;-74
2021/01/28 01:08:46;;;;;;;0.30;0.30;;;6.00;97.60;;;9.95;79.29;100965.75;5056142;27;97935;-74
2021/01/28 01:11:21;;;;;;;0.93;0.25;;;6.00;97.60;;;10.01;79.24;100972.63;5043678;27;96725;-74
2021/01/28 01:13:53;;;;;;;1.48;1.00;;;5.90;97.60;;;9.97;79.14;100976.94;5032004;27;96840;-73
2021/01/28 01:16:30;;;;;;;0.20;0.20;;;5.90;97.60;;;10.04;79.21;100971.25;5041047;27;96955;-73
2021/01/28 01:19:08;;;;;;;1.25;0.95;;;5.90;97.60;;;9.97;79.45;100976.94;5045571;27;97842;-73
2021/01/28 01:21:54;;;;;;;0.77;0.63;;;5.90;97.60;;;9.87;79.80;100971.75;5027655;27;96777;-73
2021/01/28 01:24:24;;;;;;;1.58;0.85;;;5.90;97.60;;;9.89;79.37;100974.13;5044808;27;96957;-74
2021/01/28 01:26:54;;;;;;;4.47;0.85;;;5.90;97.60;;;9.79;79.87;100969.75;5046455;27;96723;-74
2021/01/28 01:29:24;;;;;;;9.02;1.65;;;5.90;97.60;;;9.78;79.82;100968.16;5055703;27;97910;-74
2021/01/28 01:32:18;;;;;;;0.50;0.50;;;5.90;97.60;;;9.77;79.93;100965.75;5038590;27;96802;-74
2021/01/28 01:35:09;;;;;;;0.70;0.70;;;5.90;97.60;;;9.76;80.39;100962.31;5042330;27;96817;-74
2021/01/28 01:37:38;;;;;;;1.95;1.15;;;5.90;97.60;;;9.76;80.02;100948.94;5040380;27;96932;-74
2021/01/28 01:40:12;;;;;;;1.13;0.88;;;5.90;97.60;;;9.80;79.74;100957.16;5043274;27;98037;-74
2021/01/28 01:42:47;;;;;;;2.03;1.77;;;5.80;97.60;;;9.80;79.78;100941.09;5045454;27;97793;-74
2021/01/28 01:45:19;;;;;;;1.07;0.97;;;5.80;97.60;;;9.79;79.73;100934.16;5042180;27;96868;-73
2021/01/28 01:47:53;;;;;;;1.25;1.00;;;5.80;97.60;;;9.75;79.63;100931.25;5058742;27;98436;-74
2021/01/28 01:51:13;;;;;;;3.50;0.93;;;5.80;97.60;;;9.76;79.54;100934.75;5029413;27;97767;-75
2021/01/28 01:53:56;;;;;;;0.65;0.65;;;5.80;97.60;;;9.77;79.93;100928.31;5024767;27;97771;-73
2021/01/28 01:56:31;;;;;;;1.73;1.17;;;5.80;97.60;;;9.73;79.94;100928.06;5048214;27;97833;-73
2021/01/28 01:59:07;;;;;;;1.65;0.82;;;5.80;97.60;;;9.78;79.74;100917.31;5059208;27;97081;-73
2021/01/28 02:02:05;;;;;;;0.98;0.43;;;5.80;97.60;;;9.71;79.55;100919.56;5041715;27;97890;-73
2021/01/28 02:05:02;;;;;;;0.38;0.35;;;5.80;97.60;;;9.72;80.12;100920.34;5044007;27;96763;-74
2021/01/28 02:07:51;;;;;;;2.72;1.08;;;5.80;97.60;;;9.70;80.10;100917.97;5044101;27;96674;-73
2021/01/28 02:10:38;;;;;;;0.40;0.40;;;5.80;97.60;;;9.73;79.71;100908.56;5041411;27;96915;-73
2021/01/28 02:13:25;;;;;;;1.00;0.95;;;5.80;97.60;;;9.75;79.54;100901.03;5042048;27;96850;-73
2021/01/28 02:16:06;;;;;;;3.30;1.83;;;5.80;97.60;;;9.73;79.73;100906.66;5043707;27;98128;-73
2021/01/28 02:18:46;;;;;;;0.98;0.77;;;5.80;97.60;;;9.73;79.87;100911.25;5034264;27;97310;-73
2021/01/28 02:21:28;;;;;;;0.90;0.90;;;5.70;97.60;;;9.72;79.42;100912.34;5032123;27;96784;-73
2021/01/28 02:24:33;;;;;;;1.45;0.90;;;5.70;97.60;;;9.74;79.65;100904.81;5041844;27;96925;-73
2021/01/28 02:27:09;;;;;;;0.85;0.82;;;5.70;97.60;;;9.75;79.55;100893.78;5048501;27;97678;-73
2021/01/28 02:29:55;;;;;;;2.67;1.27;;;5.70;97.60;;;9.85;78.93;100896.34;5043573;27;96918;-73
2021/01/28 02:32:23;;;;;;;1.35;1.23;;;5.70;97.60;;;9.77;79.45;100880.13;5028926;27;96830;-73
2021/01/28 02:35:12;;;;;;;0.77;0.70;;;5.70;97.60;;;9.77;79.12;100888.16;5041829;27;97823;-73
2021/01/28 02:37:40;;;;;;;0.20;0.20;;;5.70;97.60;;;9.78;79.47;100873.69;5039003;27;97479;-73
2021/01/28 02:40:24;;;;;;;1.05;1.02;;;5.70;97.90;;;9.76;78.92;100873.19;5032262;27;96713;-73
2021/01/28 02:43:13;;;;;;;1.55;0.63;;;5.70;97.60;;;9.72;79.25;100874.88;5035750;27;97200;-73
2021/01/28 02:46:08;;;;;;;3.63;1.73;;;5.70;97.60;;;9.70;79.18;100858.31;5039275;27;98627;-73
2021/01/28 02:48:49;;;;;;;0.93;0.85;;;5.70;97.60;;;9.72;79.43;100845.44;5047601;27;97713;-73
2021/01/28 02:51:41;;;;;;;0.17;0.17;;;5.70;97.60;;;9.72;79.42;100858.81;5031466;27;96712;-73
2021/01/28 02:54:17;;;;;;;0.90;0.38;;;5.60;97.60;;;9.72;79.05;100854.25;5053793;27;98661;-73
2021/01/28 02:56:45;;;;;;;1.67;0.93;;;5.70;97.60;;;9.71;79.26;100859.91;5040753;27;97821;-73
2021/01/28 02:59:13;;;;;;;1.38;1.27;;;5.70;97.90;;;9.68;79.17;100855.94;5044682;27;97706;-74
2021/01/28 03:01:47;;;;;;;1.00;0.68;;;5.60;97.60;;;9.67;79.21;100854.34;5030815;27;97223;-73
2021/01/28 03:04:18;;;;;;;0.85;0.68;;;5.60;97.60;;;9.65;79.33;100839.69;5024574;27;96960;-73
2021/01/28 03:07:05;;;;;;;1.67;0.73;;;5.60;97.60;;;9.65;79.11;100835.13;5045411;27;97993;-72
2021/01/28 03:09:34;;;;;;;3.60;1.40;;;5.60;97.60;;;9.62;79.12;100837.59;5047832;27;97701;-74
2021/01/28 03:12:17;;;;;;;0.63;0.63;;;5.60;97.50;;;9.54;79.17;100831.03;5054034;27;96808;-73
2021/01/28 03:14:58;;;;;;;0.57;0.57;;;5.60;97.50;;;9.55;79.32;100831.81;5047528;27;97519;-73
2021/01/28 03:17:26;;;;;;;0.20;0.20;;;5.50;97.50;;;9.60;79.46;100835.19;5040088;27;96947;-73
2021/01/28 03:19:58;;;;;;;0.28;0.28;;;5.50;97.50;;;9.61;79.06;100833.34;5025910;27;98729;-74
2021/01/28 03:22:26;;;;;;;0.35;0.35;;;5.50;97.60;;;9.60;79.10;100821.03;5030972;27;96692;-74
2021/01/28 03:25:16;;;;;;;0.32;0.30;;;5.50;97.60;;;9.65;79.11;100823.63;5056265;27;97053;-74
2021/01/28 03:27:45;;;;;;;1.27;0.90;;;5.50;97.60;;;9.61;79.00;100826.09;5039070;27;97397;-74
2021/01/28 03:30:20;;;;;;;0.10;0.10;;;5.50;97.60;;;9.60;79.20;100824.50;5041570;27;97781;-74
2021/01/28 03:32:50;;;;;;;0.38;0.38;;;5.50;97.60;;;9.59;79.31;100830.13;5042238;27;96818;-74
2021/01/28 03:35:22;;;;;;;1.85;1.27;;;5.50;97.60;;;9.58;78.81;100815.97;5036332;27;97073;-74
2021/01/28 03:37:52;;;;;;;3.03;0.60;;;5.50;97.60;;;9.54;79.01;100814.97;5047840;27;96792;-74
2021/01/28 03:40:27;;;;;;;1.15;0.15;;;5.50;97.60;;;9.51;79.23;100804.88;5048098;27;97926;-74
2021/01/28 03:42:57;;;;;;;1.50;1.15;;;5.50;97.60;;;9.51;79.29;100812.88;5035585;27;97481;-74
2021/01/28 03:45:27;;;;;;;0.73;0.73;;;5.50;97.60;;;9.52;79.22;100811.00;5058819;27;96971;-74
2021/01/28 03:47:57;;;;;;;0.93;0.90;;;5.50;97.60;;;9.54;79.14;100806.94;5048226;27;98455;-74
2021/01/28 03:50:45;;;;;;;0.22;0.22;;;5.50;97.60;;;9.55;79.24;100815.75;5041956;27;97695;-74
2021/01/28 03:53:24;;;;;;;0.80;0.75;;;5.50;97.60;;;9.53;79.02;100818.75;5056730;27;97350;-74
2021/01/28 03:56:17;;;;;;;;;;;5.50;97.60;;;9.49;79.00;100822.28;5044559;27;97756;-74
2021/01/28 03:58:45;;;;;;;1.77;0.65;;;5.40;97.50;;;9.42;79.23;100811.16;5042964;27;96821;-74
2021/01/28 04:01:34;;;;;;;1.63;0.52;;;5.40;97.50;;;9.45;79.24;100811.34;5047357;27;96747;-73
2021/01/28 04:04:20;;;;;;;0.77;0.32;;;5.40;97.60;;;9.47;79.15;100805.72;5014681;27;97162;-74
2021/01/28 04:07:08;;;;;;;2.47;1.27;;;5.40;97.60;;;9.48;79.11;100800.09;5042026;27;96992;-74
2021/01/28 04:09:42;;;;;;;2.67;1.60;;;5.40;97.60;;;9.54;78.81;100793.56;5059278;27;96967;-74
2021/01/28 04:12:34;;;;;;;0.88;0.88;;;5.40;97.60;;;9.52;79.09;100801.09;5045154;27;98109;-74
2021/01/28 04:15:06;;;;;;;4.45;2.72;;;5.40;97.60;;;9.50;79.17;100795.25;5038142;27;97305;-74
2021/01/28 04:17:54;;;;;;;1.08;0.75;;;5.40;97.60;;;9.50;79.09;100783.75;5045213;27;97596;-74
2021/01/28 04:20:30;;;;;;;0.77;0.45;;;5.40;97.60;;;9.44;78.98;100775.00;5039928;27;97464;-74
2021/01/28 04:23:09;;;;;;;1.35;1.25;;;5.40;97.60;;;9.40;79.42;100783.94;5046363;27;97774;-74
2021/01/28 04:26:17;;;;;;;0.57;0.57;;;5.40;97.60;;;9.42;79.10;100790.56;5040593;27;97286;-74
2021/01/28 04:28:52;;;;;;;2.60;1.00;;;5.40;97.60;;;9.40;79.28;100784.72;5048729;27;97577;-74
2021/01/28 04:31:37;;;;;;;1.33;0.82;;;5.40;97.60;;;9.43;79.25;100769.97;5042207;27;97814;-74
2021/01/28 04:34:15;;;;;;;2.53;1.27;;;5.40;97.60;;;9.41;79.27;100753.44;5060003;27;96796;-74
2021/01/28 04:36:44;;;;;;;0.45;0.45;;;5.40;97.60;;;9.39;79.44;100750.25;5043720;27;97428;-74
2021/01/28 04:39:44;;;;;;;2.83;1.73;;;5.40;97.60;;;9.39;79.91;100753.69;5040648;27;96694;-74
2021/01/28 04:42:21;;;;;;;0.57;0.30;;;5.40;97.60;;;9.39;79.52;100758.28;5038671;27;97909;-74
2021/01/28 04:44:53;;;;;;;0.50;0.50;;;5.40;97.60;;;9.37;79.50;100752.44;5040544;27;97312;-74
2021/01/28 04:47:25;;;;;;;1.00;0.98;;;5.40;97.60;;;9.35;79.64;100759.94;5050190;27;96729;-74
2021/01/28 04:49:59;;;;;;;1.25;1.15;;;5.40;97.60;;;9.39;79.45;100743.00;5044841;27;96924;-74
2021/01/28 04:53:02;;;;;;;1.73;0.38;;;5.30;97.60;;;9.41;79.46;100730.13;5042225;27;99094;-74
2021/01/28 04:55:55;;;;;;;1.90;1.30;;;5.40;97.60;;;9.40;79.99;100722.44;5045579;27;97708;-74
2021/01/28 04:58:24;;;;;;;2.42;1.27;;;5.40;97.60;;;9.43;79.46;100721.84;5042553;27;96801;-74
2021/01/28 05:01:00;;;;;;;1.00;0.55;;;5.30;97.60;;;9.41;79.52;100702.63;5051451;27;97039;-74
2021/01/28 05:03:53;;;;;;;0.95;0.95;;;5.40;97.60;;;9.45;79.43;100698.25;5043088;27;96671;-74
2021/01/28 05:06:42;;;;;;;5.40;1.00;;;5.40;97.60;;;9.40;79.34;100685.78;5049742;27;97706;-74
2021/01/28 05:09:32;;;;;;;0.30;0.30;;;5.40;97.60;;;9.38;79.65;100673.81;5043416;27;97235;-74
2021/01/28 05:12:23;;;;;;;2.17;1.02;;;5.40;97.60;;;9.41;79.56;100662.50;5045305;27;97369;-74
2021/01/28 05:15:19;;;;;;;0.25;0.25;;;5.40;97.60;;;9.44;79.44;100645.88;5051548;27;96886;-74
2021/01/28 05:18:27;;;;;;;0.68;0.68;;;5.40;97.60;;;9.38;79.47;100636.38;5042987;27;97640;-74
2021/01/28 05:21:29;;;;;;;2.63;1.25;;;5.40;97.60;;;9.50;79.03;100631.31;5036648;27;96830;-74
2021/01/28 05:24:38;;;;;;;2.78;0.88;;;5.40;97.60;;;9.54;78.67;100626.94;5028840;27;97446;-74
2021/01/28 05:27:28;;;;;;;5.25;1.65;;;5.40;97.60;;;9.60;78.50;100621.22;5061850;27;97798;-74
2021/01/28 05:30:06;;;;;;;1.23;1.17;;;5.30;97.60;;;9.64;78.26;100608.06;5044203;27;97705;-74
2021/01/28 05:32:39;;;;;;;1.02;0.65;;;5.30;97.60;;;9.51;78.86;100603.47;5042345;27;96684;-74
2021/01/28 05:35:30;;;;;;;0.43;0.43;;;5.30;97.60;;;9.45;78.84;100604.66;5057824;27;96720;-74
2021/01/28 05:38:37;;;;;;;0.93;0.90;;;5.30;97.60;;;9.43;79.33;100590.81;5040700;27;96903;-74
2021/01/28 05:41:32;;;;;;;0.38;0.38;;;5.30;97.60;;;9.40;78.97;100597.53;5050866;27;97194;-74
2021/01/28 05:44:21;;;;;;;0.73;0.73;;;5.30;97.60;;;9.37;79.37;100586.66;5041631;27;96684;-74
2021/01/28 05:47:07;;;;;;;6.47;0.90;;;5.30;97.60;;;9.39;79.10;100589.81;5043051;27;97949;-74
2021/01/28 05:50:16;;;;;;;0.88;0.60;;;5.30;97.60;;;9.39;79.28;100590.59;5022414;27;97781;-74
2021/01/28 05:52:45;;;;;;;1.15;0.95;;;5.30;97.60;;;9.38;78.85;100594.38;5029800;27;97946;-74
2021/01/28 05:55:22;;;;;;;16.52;1.58;;;5.30;97.60;;;9.39;79.21;100582.56;5044775;27;96990;-74
2021/01/28 05:58:05;;;;;;;0.77;0.65;;;5.30;97.60;;;9.40;78.97;100578.81;5041836;27;96902;-74
2021/01/28 06:00:49;;;;;;;1.80;0.93;;;5.30;97.60;;;9.41;79.24;100568.91;5049257;27;97125;-74
2021/01/28 06:04:04;;;;;;;1.33;1.15;;;5.30;97.60;;;9.34;79.51;100573.88;5048379;27;97668;-74
2021/01/28 06:07:54;;;;;;;0.68;0.57;;;5.30;97.60;;;9.31;79.50;100563.78;5035757;27;97024;-74
2021/01/28 06:11:04;;;;;;;1.23;0.75;;;5.30;97.60;;;9.35;79.35;100567.44;5058994;27;96739;-74
2021/01/28 06:14:42;;;;;;;0.73;0.73;;;5.30;97.60;;;9.32;79.71;100560.81;5042424;27;96696;-74
2021/01/28 06:17:53;;;;;;;3.83;1.02;;;5.30;97.60;;;9.32;79.35;100557.34;5040491;27;96890;-73
2021/01/28 06:21:20;;;;;;;1.85;0.85;;;5.30;97.60;;;9.33;79.45;100562.38;5032008;27;96765;-73
2021/01/28 06:24:51;;;;;;;;;;;5.30;97.60;;;9.33;79.09;100542.88;5045720;27;97391;-73
2021/01/28 06:27:58;;;;;;;0.50;0.50;;;5.30;97.60;;;9.33;79.53;100537.53;5058106;27;96830;-73
2021/01/28 06:30:46;;;;;;;0.70;0.70;;;5.30;97.60;;;9.30;79.34;100538.09;5043051;27;97728;-73
2021/01/28 06:34:07;;;;;;;1.58;1.42;;;5.30;97.60;;;9.27;79.51;100533.34;5051076;27;96884;-73
2021/01/28 06:37:26;;;;;;;3.17;1.40;;;5.30;97.60;;;9.29;79.54;100528.50;5041945;27;97021;-73
2021/01/28 06:40:19;;;;;;;2.72;2.25;;;5.30;97.60;;;9.27;79.89;100515.47;5042067;27;97322;-73
2021/01/28 06:43:14;;;;;;;0.65;0.40;;;5.30;97.60;;;9.28;79.46;100506.34;5010161;27;99049;-73
2021/01/28 06:46:45;;;;;;;12.88;1.02;;;5.30;97.60;;;9.37;78.98;100501.09;5036436;27;97422;-73
2021/01/28 06:49:50;;;;;;;20.77;2.20;;;5.30;97.60;;;9.36;79.27;100494.16;5041477;27;96889;-73
2021/01/28 06:52:48;;;;;;;1.45;0.63;;;5.30;97.60;;;9.35;79.20;100488.00;5046205;27;96876;-73
2021/01/28 06:55:37;;;;;;;2.55;1.92;;;5.30;97.60;;;9.33;79.23;100490.19;5060926;27;97717;-74
2021/01/28 06:59:09;;;;;;;1.65;0.73;;;5.30;97.60;;;9.27;79.53;100486.06;5006624;27;97382;-73
2021/01/28 07:01:59;;;;;;;2.25;1.23;;;5.20;97.60;;;9.28;79.45;100486.81;5039924;27;96938;-74
2021/01/28 07:05:09;;;;;;;0.20;0.20;;;5.30;97.60;;;9.27;79.56;100479.13;5054330;27;96827;-73
2021/01/28 07:07:48;;;;;;;;;;;5.20;97.60;;;9.24;79.44;100480.50;5048231;27;97628;-74
2021/01/28 07:10:39;;;;;;;1.85;1.23;;;5.20;97.60;;;9.29;79.34;100475.03;5030064;27;97457;-74
2021/01/28 07:13:35;;;;;;;1.85;1.10;;;5.20;97.60;;;9.27;79.21;100471.09;5042496;27;96798;-74
2021/01/28 07:16:31;;;;;;;0.60;0.60;;;5.20;97.60;;;9.26;79.29;100466.84;5046628;27;98483;-74
2021/01/28 07:19:14;;;;;;;0.45;0.45;;;5.20;97.90;;;9.27;79.32;100475.34;5053114;27;97559;-74
2021/01/28 07:21:48;;;;;;;0.67;0.60;;;5.20;97.60;;;9.22;79.41;100472.00;5037434;27;97551;-73
2021/01/28 07:24:34;;;;;;;5.15;2.67;;;5.20;97.60;;;9.23;79.43;100460.19;5028194;27;97016;-73
2021/01/28 07:27:07;;;;;;;0.35;0.35;;;5.20;97.60;;;9.23;79.67;100454.09;5045187;27;97790;-73
2021/01/28 07:30:02;;;;;;;1.70;1.38;;;5.20;97.60;;;9.19;79.64;100455.78;5039895;27;97726;-74
2021/01/28 07:32:58;;;;;;;0.82;0.80;;;5.10;97.60;;;9.22;79.50;100447.16;5042100;27;96726;-74
2021/01/28 07:35:52;;;;;;;0.70;0.70;;;5.20;97.60;;;9.11;79.81;100448.44;5031509;27;97439;-73
2021/01/28 07:38:49;;;;;;;3.08;0.75;;;5.20;97.60;;;9.15;79.28;100444.88;5036256;27;98027;-73
2021/01/28 07:41:58;;;;;;;2.42;1.40;;;5.20;97.60;;;9.16;79.72;100434.97;5039595;27;96870;-73
2021/01/28 07:44:52;;;;;;;1.00;0.98;;;5.20;97.60;;;9.13;79.76;100423.00;5040939;27;96685;-73
2021/01/28 07:47:59;;;;;;;0.70;0.57;;;5.10;97.60;;;9.01;80.37;100417.41;5058335;27;98065;-74
2021/01/28 07:51:32;;;;;;;1.83;1.13;;;5.10;97.60;;;9.09;79.77;100415.88;5034851;27;97981;-74
2021/01/28 07:54:06;;;;;;;18.00;1.30;;;5.10;97.60;;;9.07;79.77;100405.50;5039341;27;97737;-74
2021/01/28 07:56:49;;;;;;;0.75;0.73;;;5.10;97.60;;;9.12;79.83;100401.91;5040127;27;96732;-73
2021/01/28 07:59:39;;;;;;;1.10;0.85;;;5.10;97.60;;;9.12;79.61;100394.69;5040534;27;96688;-73
2021/01/28 08:02:25;;;;;;;1.65;1.17;;;5.10;97.60;;;9.09;79.75;100389.97;5040379;27;97318;-73
2021/01/28 08:05:07;;;;;;;1.00;1.00;;;5.10;97.60;;;9.11;79.70;100378.94;5045765;27;97664;-73
2021/01/28 08:07:42;;;;;;;1.65;1.55;;;5.10;97.60;;;9.08;79.74;100364.31;5041526;27;96782;-73
2021/01/28 08:10:27;;;;;;;2.00;1.38;;;5.10;97.60;;;9.10;79.46;100362.13;5039090;27;96802;-73
2021/01/28 08:13:02;;;;;;;1.10;1.00;;;5.10;97.60;;;9.10;79.39;100354.13;5025039;27;97857;-73
2021/01/28 08:15:39;;;;;;;0.52;0.52;;;5.10;97.60;;;9.05;79.40;100356.91;5040099;27;98175;-73
2021/01/28 08:18:18;;;;;;;3.15;1.33;;;5.10;97.60;;;9.06;79.53;100358.50;5045633;27;96833;-73
2021/01/28 08:20:47;;;;;;;1.73;1.63;;;5.10;97.60;;;9.08;79.47;100358.19;5043621;27;96874;-72
2021/01/28 08:23:24;;;;;;;3.05;1.10;;;5.10;97.60;;;9.07;79.42;100356.59;5027914;27;97311;-73
2021/01/28 08:25:57;;;;;;;0.95;0.73;;;5.10;97.60;;;9.11;79.36;100353.03;5044515;27;97727;-73
2021/01/28 08:28:28;;;;;;;1.30;0.70;;;5.10;97.60;;;9.12;79.57;100353.81;5043310;27;96749;-73
2021/01/28 08:31:06;;;;;;;3.17;1.15;;;5.10;97.60;;;9.16;79.12;100350.25;5043574;27;96982;-73
2021/01/28 08:33:38;;;;;;;2.90;1.38;;;5.10;97.60;;;9.18;79.32;100342.72;5045978;27;98041;-73
2021/01/28 08:36:24;;;;;;;2.97;1.98;;;5.10;97.60;;;9.14;79.50;100344.41;5050759;27;97598;-72
2021/01/28 08:39:11;;;;;;;2.80;1.70;;;5.10;97.60;;;9.12;79.44;100343.91;5044425;27;96845;-72
2021/01/28 08:41:39;;;;;;;0.50;0.50;;;5.10;97.60;;;9.12;79.43;100337.78;5040149;27;96897;-72
2021/01/28 08:44:14;;;;;;;1.10;0.98;;;5.10;97.60;;;9.14;79.30;100341.75;5045886;27;97104;-72
2021/01/28 08:46:45;;;;;;;1.73;1.08;;;5.10;97.60;;;9.15;79.42;100334.50;5043825;27;97893;-72
2021/01/28 08:49:20;;;;;;;1.30;1.25;;;5.10;97.60;;;9.20;79.34;100335.19;5030829;27;97715;-72
2021/01/28 08:51:59;;;;;;;2.20;2.10;;;5.20;97.60;;;9.22;78.99;100324.19;5043331;27;97587;-72
2021/01/28 08:54:39;;;;;;;10.13;1.67;;;5.20;97.60;;;9.29;78.97;100328.00;5041547;27;97948;-72
2021/01/28 08:57:11;;;;;;;2.00;1.30;;;5.10;97.60;;;9.31;78.74;100323.19;5039945;27;97771;-72
2021/01/28 08:59:45;;;;;;;3.38;2.50;;;5.20;97.60;;;9.30;78.76;100319.72;5037463;27;97182;-72
2021/01/28 09:02:19;;;;;;;0.68;0.68;;;5.20;97.60;;;9.32;78.70;100322.09;5038082;27;97454;-73
2021/01/28 09:05:02;;;;;;;2.45;2.28;;;5.20;97.60;;;9.33;79.14;100310.31;5040356;27;97920;-72
2021/01/28 09:07:49;;;;;;;2.88;1.63;;;5.20;97.60;;;9.29;78.97;100301.28;5045007;27;97502;-72
2021/01/28 09:10:34;;;;;;;2.72;1.63;;;5.20;97.60;;;9.35;79.00;100300.88;5040121;27;96786;-72
2021/01/28 09:13:21;;;;;;;1.20;1.10;;;5.20;97.60;;;9.40;79.28;100307.97;5039710;27;96823;-72
2021/01/28 09:16:07;;;;;;;1.08;1.08;;;5.20;97.60;;;9.37;78.78;100303.25;5023078;27;97846;-72
2021/01/28 09:18:40;;;;;;;2.08;0.60;;;5.30;97.60;;;9.34;78.87;100304.63;5038633;27;98029;-73
2021/01/28 09:21:12;;;;;;;3.67;0.73;;;5.30;97.60;;;9.34;78.59;100298.50;5042317;27;97610;-73
2021/01/28 09:23:57;;;;;;;1.07;0.97;;;5.30;97.60;;;9.36;78.89;100293.66;5051688;27;96938;-72
2021/01/28 09:26:30;;;;;;;1.85;1.52;;;5.30;97.60;;;9.35;78.96;100284.06;5045645;27;96798;-72
2021/01/28 09:29:09;;;;;;;1.58;1.10;;;5.20;97.50;;;9.38;78.97;100280.75;5022549;27;97910;-73
2021/01/28 09:31:38;;;;;;;1.80;0.93;;;5.30;97.60;;;9.35;78.85;100281.38;5040985;27;96850;-72
2021/01/28 09:34:22;;;;;;;1.52;1.10;;;5.30;97.50;;;9.36;78.88;100283.72;5046103;27;96713;-72
2021/01/28 09:36:58;;;;;;;2.85;1.33;;;5.30;97.50;;;9.33;79.27;100275.53;5044353;27;97862;-72
2021/01/28 09:39:34;;;;;;;9.23;2.03;;;5.30;97.50;;;9.35;79.06;100276.03;5042493;27;97954;-73
2021/01/28 09:42:28;;;;;;;1.67;1.58;;;5.30;97.50;;;9.36;79.10;100266.91;5039425;27;97062;-73
2021/01/28 09:45:10;;;;;;;1.15;1.13;;;5.20;97.50;;;9.33;79.04;100270.19;5044703;27;97364;-72
2021/01/28 09:47:39;;;;;;;2.08;1.52;;;5.30;97.50;;;9.34;79.05;100255.75;5040732;27;97483;-73
2021/01/28 09:50:11;;;;;;;5.82;2.47;;;5.30;97.50;;;9.33;79.32;100248.81;5042263;27;97836;-72
2021/01/28 09:52:44;;;;;;;2.88;2.45;;;5.30;97.50;;;9.34;79.16;100261.09;5041926;27;98814;-72
2021/01/28 09:55:17;;;;;;;1.30;1.13;;;5.30;97.50;;;9.37;78.94;100260.47;5042844;27;96959;-72
2021/01/28 09:57:46;;;;;;;2.20;1.63;;;5.30;97.50;;;9.37;79.00;100263.16;5041287;27;98403;-72
2021/01/28 10:00:19;;;;;;;1.60;1.35;;;5.30;97.50;;;9.37;79.12;100255.13;5046812;27;97797;-72
2021/01/28 10:02:51;;;;;;;;;;;5.30;97.50;;;9.36;78.99;100257.00;5043098;27;97806;-72
2021/01/28 10:05:22;;;;;;;3.25;1.92;;;5.30;97.50;;;9.33;79.11;100256.84;5044903;27;97186;-72
2021/01/28 10:07:51;;;;;;;2.37;1.53;;;5.30;97.50;;;9.32;78.87;100253.34;5041009;27;97901;-72
2021/01/28 10:10:26;;;;;;;1.65;1.17;;;5.30;97.40;;;9.31;78.96;100248.34;5041103;27;97984;-72
2021/01/28 10:12:59;;;;;;;3.35;1.15;;;5.30;97.40;;;9.27;78.72;100255.34;5048930;27;97169;-72
2021/01/28 10:15:30;;;;;;;1.95;1.80;;;5.30;97.40;;;9.27;78.93;100250.81;5057897;27;96911;-72
2021/01/28 10:17:59;;;;;;;2.28;1.23;;;5.30;97.40;;;9.27;79.07;100241.22;5042980;27;97862;-72
2021/01/28 10:20:31;;;;;;;1.70;1.37;;;5.30;97.40;;;9.28;79.20;100246.25;5041634;27;97531;-72
2021/01/28 10:23:04;;;;;;;5.50;2.80;;;5.30;97.40;;;9.30;79.20;100244.06;5044902;27;97007;-72
2021/01/28 10:25:33;;;;;;;1.63;1.30;;;5.30;97.40;;;9.31;78.65;100243.75;5044068;27;97526;-72
2021/01/28 10:28:02;;;;;;;2.08;1.17;;;5.30;97.40;;;9.29;78.88;100245.16;5041795;27;97877;-72
2021/01/28 10:30:31;;;;;;;4.80;1.48;;;5.30;97.40;;;9.27;79.26;100242.00;5045704;27;99835;-72
2021/01/28 10:33:00;;;;;;;4.32;1.83;;;5.30;97.40;;;9.29;79.18;100245.94;5044111;27;96761;-72
2021/01/28 10:35:35;;;;;;;6.45;1.48;;;5.20;97.40;;;9.26;79.06;100247.66;5057008;27;96744;-72
2021/01/28 10:38:05;;;;;;;1.15;0.68;;;5.20;97.40;;;9.21;79.03;100245.09;5037277;27;97982;-72
2021/01/28 10:40:34;;;;;;;6.50;1.80;;;5.20;97.40;;;9.16;79.06;100243.34;5039108;27;96827;-72
2021/01/28 10:43:07;;;;;;;0.60;0.60;;;5.20;97.40;;;9.19;79.00;100237.38;5036216;27;97692;-73
2021/01/28 10:45:41;;;;;;;1.52;1.42;;;5.20;97.40;;;9.17;78.82;100236.13;5040513;27;96754;-73
2021/01/28 10:48:10;;;;;;;3.03;1.00;;;5.20;97.40;;;9.14;78.85;100234.03;5035916;27;97926;-72
2021/01/28 10:50:39;;;;;;;1.00;0.98;;;5.10;97.30;;;9.06;78.85;100232.09;5040589;27;96759;-72
2021/01/28 10:53:08;;;;;;;2.63;1.58;;;5.10;97.30;;;9.03;78.88;100232.69;5041359;27;97153;-73
2021/01/28 10:55:37;;;;;;;0.63;0.35;;;5.10;97.30;;;9.05;78.76;100234.00;5036219;27;96937;-72
2021/01/28 10:58:06;;;;;;;0.63;0.63;;;5.00;97.30;;;9.01;78.85;100226.88;5054972;27;97937;-72
2021/01/28 11:00:34;;;;;;;0.73;0.73;;;5.00;97.30;;;9.00;78.87;100214.59;5040867;27;97707;-72
2021/01/28 11:03:04;;;;;;;0.68;0.68;;;5.00;97.30;;;9.00;78.90;100238.66;5023173;27;97431;-72
2021/01/28 11:05:35;;;;;;;1.02;0.93;;;5.00;97.30;;;8.94;79.02;100227.28;5022907;27;96989;-72
2021/01/28 11:08:06;;;;;;;0.65;0.65;;;5.00;97.30;;;8.91;78.86;100225.22;5055512;27;97936;-72
2021/01/28 11:10:51;;;;;;;0.70;0.63;;;5.00;97.30;;;8.80;79.15;100223.88;5037235;27;97670;-72
2021/01/28 11:13:21;;;;;;;1.02;1.00;;;4.90;97.20;;;8.78;79.12;100219.94;5046656;27;96807;-72
2021/01/28 11:15:49;;;;;;;4.35;0.93;;;4.90;97.20;;;8.74;79.41;100217.09;5044760;27;97413;-72
2021/01/28 11:18:17;;;;;;;1.70;1.35;;;4.90;97.20;;;8.76;79.00;100216.78;5046723;27;97858;-72
2021/01/28 11:20:54;;;;;;;14.35;1.58;;;4.80;97.10;;;8.73;79.04;100209.38;5031940;27;97848;-72
2021/01/28 11:23:21;;;;;;;0.47;0.40;;;4.90;97.20;;;8.72;79.37;100218.47;5045588;27;96772;-72
2021/01/28 11:25:49;;;;;;;1.08;0.90;;;4.80;97.10;;;8.72;79.02;100211.25;5042049;27;96971;-72